createdAt,value
2017-02-04T00:00:01.857Z,0.44
2017-02-04T00:01:12.530Z,0.49
2017-02-04T00:02:23.212Z,0.45
2017-02-04T00:03:33.884Z,0.48
2017-02-04T00:04:44.161Z,0.44
2017-02-04T00:05:54.831Z,0.47
2017-02-04T00:07:05.541Z,0.44
2017-02-04T00:08:16.219Z,0.47
2017-02-04T00:09:26.895Z,0.44
2017-02-04T00:10:37.564Z,0.44
2017-02-04T00:11:48.235Z,0.48
2017-02-04T00:12:58.918Z,0.42
2017-02-04T00:14:09.587Z,0.45
2017-02-04T00:15:20.258Z,0.44
2017-02-04T00:16:30.929Z,0.42
2017-02-04T00:17:41.209Z,0.51
2017-02-04T00:18:51.880Z,0.33
2017-02-04T00:20:02.555Z,0.42
2017-02-04T00:21:12.831Z,0.48
2017-02-04T00:22:23.513Z,0.44
2017-02-04T00:23:34.189Z,0.4
2017-02-04T00:24:44.069Z,0.42
2017-02-04T00:25:54.746Z,0.4
2017-02-04T00:27:05.420Z,0.42
2017-02-04T00:28:16.094Z,0.33
2017-02-04T00:29:26.766Z,0.42
2017-02-04T00:30:37.083Z,0.39
2017-02-04T00:31:47.363Z,0.33
2017-02-04T00:32:58.039Z,0.36
2017-02-04T00:34:08.711Z,0.39
2017-02-04T00:35:18.993Z,0.42
2017-02-04T00:36:29.272Z,0.37
2017-02-04T00:37:39.957Z,0.3
2017-02-04T00:38:50.632Z,0.39
2017-02-04T00:40:01.305Z,0.36
2017-02-04T00:41:11.981Z,0.42
2017-02-04T00:42:22.655Z,0.36
2017-02-04T00:43:33.327Z,0.48
2017-02-04T00:44:42.811Z,0.34
2017-02-04T00:45:53.488Z,0.37
2017-02-04T00:47:04.163Z,0.34
2017-02-04T00:48:14.443Z,0.39
2017-02-04T00:49:25.128Z,0.42
2017-02-04T00:50:35.012Z,0.3
2017-02-04T00:51:45.682Z,0.4
2017-02-04T00:52:56.360Z,0.42
2017-02-04T00:54:06.643Z,0.36
2017-02-04T00:55:16.921Z,0.45
2017-02-04T00:56:27.589Z,0.34
2017-02-04T00:57:38.262Z,0.36
2017-02-04T00:58:48.939Z,0.39
2017-02-04T00:59:59.621Z,0.44
2017-02-04T01:01:10.297Z,0.48
2017-02-04T01:02:20.973Z,0.39
2017-02-04T01:03:31.688Z,0.39
2017-02-04T01:04:41.570Z,0.33
2017-02-04T01:05:52.248Z,0.47
2017-02-04T01:07:02.933Z,0.42
2017-02-04T01:08:13.605Z,0.48
2017-02-04T01:09:23.883Z,0.48
2017-02-04T01:10:34.560Z,0.52
2017-02-04T01:11:45.236Z,0.48
2017-02-04T01:12:55.919Z,0.56
2017-02-04T01:14:06.595Z,0.49
2017-02-04T01:15:17.272Z,0.59
2017-02-04T01:16:27.957Z,0.58
2017-02-04T01:17:38.631Z,0.63
2017-02-04T01:18:49.306Z,0.56
2017-02-04T01:19:59.977Z,0.61
2017-02-04T01:21:10.252Z,0.66
2017-02-04T01:22:20.930Z,0.67
2017-02-04T01:23:31.607Z,0.58
2017-02-04T01:24:42.280Z,0.58
2017-02-04T01:25:52.961Z,0.67
2017-02-04T01:27:03.644Z,0.76
2017-02-04T01:28:14.316Z,0.59
2017-02-04T01:29:24.986Z,0.64
2017-02-04T01:30:35.264Z,0.7
2017-02-04T01:31:45.935Z,0.76
2017-02-04T01:32:56.603Z,0.68
2017-02-04T01:34:07.282Z,0.71
2017-02-04T01:35:17.956Z,0.76
2017-02-04T01:36:28.638Z,0.76
2017-02-04T01:37:39.307Z,0.73
2017-02-04T01:38:49.982Z,0.7
2017-02-04T01:40:00.663Z,0.77
2017-02-04T01:41:10.948Z,0.74
2017-02-04T01:42:21.620Z,0.71
2017-02-04T01:43:32.295Z,0.67
2017-02-04T01:44:42.965Z,0.68
2017-02-04T01:45:53.639Z,0.67
2017-02-04T01:47:03.967Z,0.74
2017-02-04T01:48:14.642Z,0.71
2017-02-04T01:49:25.316Z,0.71
2017-02-04T01:50:35.988Z,0.71
2017-02-04T01:51:46.668Z,0.74
2017-02-04T01:52:57.342Z,0.68
2017-02-04T01:54:07.622Z,0.73
2017-02-04T01:55:18.291Z,0.71
2017-02-04T01:56:28.966Z,0.68
2017-02-04T01:57:39.636Z,0.67
2017-02-04T01:58:50.307Z,0.7
2017-02-04T02:00:00.583Z,0.71
2017-02-04T02:01:11.251Z,0.74
2017-02-04T02:02:21.924Z,0.74
2017-02-04T02:03:32.605Z,0.76
2017-02-04T02:04:43.280Z,0.74
2017-02-04T02:05:53.557Z,0.7
2017-02-04T02:07:04.232Z,0.71
2017-02-04T02:08:14.908Z,0.68
2017-02-04T02:09:25.578Z,0.74
2017-02-04T02:10:36.254Z,0.73
2017-02-04T02:11:46.926Z,0.73
2017-02-04T02:12:57.601Z,0.71
2017-02-04T02:14:08.295Z,0.74
2017-02-04T02:15:18.969Z,0.76
2017-02-04T02:16:29.251Z,0.74
2017-02-04T02:17:39.923Z,0.68
2017-02-04T02:18:50.591Z,0.73
2017-02-04T02:20:01.262Z,0.76
2017-02-04T02:21:11.940Z,0.76
2017-02-04T02:22:22.617Z,0.71
2017-02-04T02:23:33.299Z,0.77
2017-02-04T02:24:43.972Z,0.76
2017-02-04T02:25:54.662Z,0.76
2017-02-04T02:27:05.329Z,0.71
2017-02-04T02:28:16.001Z,0.76
2017-02-04T02:29:26.284Z,0.71
2017-02-04T02:30:36.956Z,0.73
2017-02-04T02:31:47.632Z,0.76
2017-02-04T02:32:58.327Z,0.77
2017-02-04T02:34:08.998Z,0.73
2017-02-04T02:35:19.682Z,0.74
2017-02-04T02:36:30.360Z,0.68
2017-02-04T02:37:41.388Z,0.73
2017-02-04T02:38:52.063Z,0.68
2017-02-04T02:40:02.732Z,0.67
2017-02-04T02:41:13.403Z,0.7
2017-02-04T02:42:24.077Z,0.68
2017-02-04T02:43:34.355Z,0.68
2017-02-04T02:44:45.026Z,0.73
2017-02-04T02:45:55.697Z,0.71
2017-02-04T02:47:06.373Z,0.73
2017-02-04T02:48:17.044Z,0.74
2017-02-04T02:49:27.756Z,0.7
2017-02-04T02:50:38.431Z,0.7
2017-02-04T02:51:49.105Z,0.76
2017-02-04T02:52:59.786Z,0.81
2017-02-04T02:54:10.465Z,0.76
2017-02-04T02:55:21.136Z,0.73
2017-02-04T02:56:31.810Z,0.77
2017-02-04T02:57:42.483Z,0.74
2017-02-04T02:58:53.156Z,0.76
2017-02-04T03:00:03.829Z,0.71
2017-02-04T03:01:14.103Z,0.71
2017-02-04T03:02:24.776Z,0.7
2017-02-04T03:03:35.446Z,0.73
2017-02-04T03:04:46.116Z,0.74
2017-02-04T03:05:56.789Z,0.73
2017-02-04T03:07:07.064Z,0.67
2017-02-04T03:08:17.737Z,0.73
2017-02-04T03:09:28.448Z,0.68
2017-02-04T03:10:39.123Z,0.76
2017-02-04T03:11:49.808Z,0.76
2017-02-04T03:13:00.088Z,0.73
2017-02-04T03:14:10.763Z,0.74
2017-02-04T03:15:21.434Z,0.73
2017-02-04T03:16:32.107Z,0.74
2017-02-04T03:17:42.781Z,0.74
2017-02-04T03:18:53.062Z,0.76
2017-02-04T03:20:03.733Z,0.71
2017-02-04T03:21:13.615Z,0.7
2017-02-04T03:22:24.289Z,0.67
2017-02-04T03:23:34.961Z,0.59
2017-02-04T03:24:44.442Z,0.59
2017-02-04T03:25:55.116Z,0.49
2017-02-04T03:27:05.393Z,0.48
2017-02-04T03:28:16.064Z,0.44
2017-02-04T03:29:26.735Z,0.39
2017-02-04T03:30:37.409Z,0.36
2017-02-04T03:31:48.083Z,0.39
2017-02-04T03:32:58.751Z,0.4
2017-02-04T03:34:09.437Z,0.36
2017-02-04T03:35:20.107Z,0.36
2017-02-04T03:36:30.880Z,0.31
2017-02-04T03:37:41.548Z,0.3
2017-02-04T03:38:52.229Z,0.33
2017-02-04T03:40:02.900Z,0.29
2017-02-04T03:41:12.386Z,0.29
2017-02-04T03:42:23.054Z,0.26
2017-02-04T03:43:33.729Z,0.23
2017-02-04T03:44:44.406Z,0.24
2017-02-04T03:45:55.081Z,0.19
2017-02-04T03:47:05.748Z,0.23
2017-02-04T03:48:16.423Z,0.19
2017-02-04T03:49:27.101Z,0.16
2017-02-04T03:50:37.774Z,0.18
2017-02-04T03:51:48.454Z,0.16
2017-02-04T03:52:59.122Z,0.2
2017-02-04T03:54:09.792Z,0.16
2017-02-04T03:55:20.466Z,0.15
2017-02-04T03:56:31.137Z,0.2
2017-02-04T03:57:41.806Z,0.2
2017-02-04T03:58:52.482Z,0.12
2017-02-04T04:00:03.157Z,0.16
2017-02-04T04:01:13.030Z,0.12
2017-02-04T04:02:23.717Z,0.12
2017-02-04T04:03:34.395Z,0.09
2017-02-04T04:04:45.069Z,0.13
2017-02-04T04:05:55.752Z,0.16
2017-02-04T04:07:06.029Z,0.15
2017-02-04T04:08:16.704Z,0.19
2017-02-04T04:09:27.377Z,0.12
2017-02-04T04:10:38.052Z,0.16
2017-02-04T04:11:48.733Z,0.23
2017-02-04T04:12:59.015Z,0.18
2017-02-04T04:14:09.684Z,0.16
2017-02-04T04:15:20.364Z,0.16
2017-02-04T04:16:30.643Z,0.06
2017-02-04T04:17:41.318Z,0.16
2017-02-04T04:18:51.197Z,0.15
2017-02-04T04:20:01.869Z,0.13
2017-02-04T04:21:12.147Z,0.11
2017-02-04T04:22:22.823Z,0.08
2017-02-04T04:23:33.097Z,0.06
2017-02-04T04:24:43.770Z,0.02
2017-02-04T04:25:54.048Z,0.09
2017-02-04T04:27:04.727Z,0.06
2017-02-04T04:28:15.397Z,0.09
2017-02-04T04:29:26.069Z,0.12
2017-02-04T04:30:36.740Z,0.12
2017-02-04T04:31:47.024Z,0.08
2017-02-04T04:32:57.335Z,0.06
2017-02-04T04:34:07.620Z,0.12
2017-02-04T04:35:17.898Z,0.09
2017-02-04T04:36:28.579Z,-0.02
2017-02-04T04:37:39.256Z,0.02
2017-02-04T04:38:49.924Z,0.16
2017-02-04T04:40:00.604Z,0.09
2017-02-04T04:41:10.483Z,0.06
2017-02-04T04:42:21.152Z,0.12
2017-02-04T04:43:31.829Z,0
2017-02-04T04:44:42.502Z,0.01
2017-02-04T04:45:52.777Z,0.08
2017-02-04T04:47:03.448Z,0.12
2017-02-04T04:48:13.325Z,0.02
2017-02-04T04:49:23.605Z,0.05
2017-02-04T04:50:34.275Z,0.09
2017-02-04T04:51:44.952Z,0.08
2017-02-04T04:52:55.627Z,0.13
2017-02-04T04:54:05.905Z,0.18
2017-02-04T04:55:16.579Z,0.16
2017-02-04T04:56:27.253Z,0.29
2017-02-04T04:57:37.923Z,0.29
2017-02-04T04:58:48.600Z,0.37
2017-02-04T04:59:59.270Z,0.37
2017-02-04T05:01:09.942Z,0.45
2017-02-04T05:02:20.622Z,0.42
2017-02-04T05:03:30.903Z,0.47
2017-02-04T05:04:41.581Z,0.51
2017-02-04T05:05:52.293Z,0.47
2017-02-04T05:07:02.968Z,0.47
2017-02-04T05:08:12.846Z,0.49
2017-02-04T05:09:23.519Z,0.45
2017-02-04T05:10:34.189Z,0.39
2017-02-04T05:11:44.855Z,0.45
2017-02-04T05:12:55.526Z,0.49
2017-02-04T05:14:06.202Z,0.42
2017-02-04T05:15:16.885Z,0.36
2017-02-04T05:16:27.595Z,0.4
2017-02-04T05:17:37.876Z,0.33
2017-02-04T05:18:48.548Z,0.37
2017-02-04T05:19:59.219Z,0.33
2017-02-04T05:21:09.889Z,0.29
2017-02-04T05:22:20.567Z,0.27
2017-02-04T05:23:31.239Z,0.24
2017-02-04T05:24:41.912Z,0.26
2017-02-04T05:25:51.787Z,0.2
2017-02-04T05:27:02.462Z,0.3
2017-02-04T05:28:13.136Z,0.18
2017-02-04T05:29:23.811Z,0.19
2017-02-04T05:30:34.487Z,0.19
2017-02-04T05:31:45.165Z,0.13
2017-02-04T05:32:55.444Z,0.18
2017-02-04T05:34:06.125Z,0.18
2017-02-04T05:35:16.001Z,0.12
2017-02-04T05:36:26.673Z,0.18
2017-02-04T05:37:37.351Z,0.16
2017-02-04T05:38:48.021Z,0.26
2017-02-04T05:39:58.689Z,0.27
2017-02-04T05:41:09.362Z,0.3
2017-02-04T05:42:20.036Z,0.34
2017-02-04T05:43:30.713Z,0.4
2017-02-04T05:44:41.380Z,0.39
2017-02-04T05:45:52.050Z,0.33
2017-02-04T05:47:02.727Z,0.48
2017-02-04T05:48:13.003Z,0.42
2017-02-04T05:49:23.674Z,0.47
2017-02-04T05:50:34.347Z,0.52
2017-02-04T05:51:45.024Z,0.51
2017-02-04T05:52:55.700Z,0.55
2017-02-04T05:54:06.371Z,0.42
2017-02-04T05:55:17.045Z,0.59
2017-02-04T05:56:27.725Z,0.61
2017-02-04T05:57:38.404Z,0.7
2017-02-04T05:58:49.076Z,0.68
2017-02-04T05:59:59.354Z,0.67
2017-02-04T06:01:10.026Z,0.73
2017-02-04T06:02:20.708Z,0.74
2017-02-04T06:03:31.382Z,0.82
2017-02-04T06:04:41.656Z,0.77
2017-02-04T06:05:52.328Z,0.81
2017-02-04T06:07:03.022Z,0.82
2017-02-04T06:08:13.296Z,0.82
2017-02-04T06:09:23.966Z,0.82
2017-02-04T06:10:34.637Z,0.88
2017-02-04T06:11:45.311Z,0.92
2017-02-04T06:12:55.586Z,0.95
2017-02-04T06:14:06.261Z,0.96
2017-02-04T06:15:16.182Z,0.94
2017-02-04T06:16:26.451Z,0.95
2017-02-04T06:17:37.124Z,0.96
2017-02-04T06:18:47.797Z,1
2017-02-04T06:19:58.471Z,0.95
2017-02-04T06:21:08.745Z,0.95
2017-02-04T06:22:19.459Z,0.92
2017-02-04T06:23:30.132Z,0.99
2017-02-04T06:24:40.408Z,0.94
2017-02-04T06:25:51.086Z,0.95
2017-02-04T06:27:01.756Z,0.95
2017-02-04T06:28:12.427Z,0.94
2017-02-04T06:29:22.702Z,0.89
2017-02-04T06:30:33.379Z,0.88
2017-02-04T06:31:44.050Z,0.84
2017-02-04T06:32:54.322Z,0.86
2017-02-04T06:34:04.994Z,0.99
2017-02-04T06:35:15.670Z,0.95
2017-02-04T06:36:26.346Z,0.88
2017-02-04T06:37:37.014Z,0.92
2017-02-04T06:38:47.689Z,0.84
2017-02-04T06:39:58.363Z,0.74
2017-02-04T06:41:08.640Z,0.81
2017-02-04T06:42:19.314Z,0.81
2017-02-04T06:43:29.598Z,0.85
2017-02-04T06:44:40.273Z,0.81
2017-02-04T06:45:50.954Z,0.89
2017-02-04T06:47:01.641Z,0.86
2017-02-04T06:48:12.317Z,0.89
2017-02-04T06:49:22.995Z,0.88
2017-02-04T06:50:33.661Z,0.96
2017-02-04T06:51:44.336Z,0.85
2017-02-04T06:52:55.013Z,0.89
2017-02-04T06:54:05.686Z,0.92
2017-02-04T06:55:15.963Z,0.95
2017-02-04T06:56:26.635Z,0.88
2017-02-04T06:57:37.308Z,0.89
2017-02-04T06:58:47.979Z,0.81
2017-02-04T06:59:58.650Z,0.86
2017-02-04T07:01:09.320Z,0.94
2017-02-04T07:02:20.003Z,0.91
2017-02-04T07:03:30.684Z,0.82
2017-02-04T07:04:41.358Z,0.99
2017-02-04T07:05:52.056Z,0.88
2017-02-04T07:07:02.735Z,0.89
2017-02-04T07:08:12.610Z,0.88
2017-02-04T07:09:23.285Z,0.84
2017-02-04T07:10:33.953Z,0.89
2017-02-04T07:11:44.629Z,0.85
2017-02-04T07:12:55.297Z,0.86
2017-02-04T07:14:05.972Z,0.86
2017-02-04T07:15:16.681Z,0.86
2017-02-04T07:16:27.351Z,0.92
2017-02-04T07:17:38.032Z,0.85
2017-02-04T07:18:48.750Z,0.85
2017-02-04T07:19:59.432Z,0.85
2017-02-04T07:21:10.113Z,0.85
2017-02-04T07:22:20.789Z,0.92
2017-02-04T07:23:31.460Z,0.91
2017-02-04T07:24:42.128Z,0.88
2017-02-04T07:25:52.798Z,0.86
2017-02-04T07:27:03.072Z,0.86
2017-02-04T07:28:13.349Z,0.95
2017-02-04T07:29:23.620Z,0.91
2017-02-04T07:30:33.903Z,0.95
2017-02-04T07:31:44.579Z,0.95
2017-02-04T07:32:55.247Z,0.95
2017-02-04T07:34:05.920Z,0.95
2017-02-04T07:35:16.192Z,0.96
2017-02-04T07:36:26.931Z,0.96
2017-02-04T07:37:37.212Z,0.94
2017-02-04T07:38:47.886Z,0.95
2017-02-04T07:39:58.160Z,0.99
2017-02-04T07:41:08.433Z,0.99
2017-02-04T07:42:19.103Z,1
2017-02-04T07:43:29.773Z,1.06
2017-02-04T07:44:40.446Z,1.07
2017-02-04T07:45:51.128Z,0.99
2017-02-04T07:47:01.005Z,1.04
2017-02-04T07:48:11.282Z,1.06
2017-02-04T07:49:21.989Z,1
2017-02-04T07:50:32.263Z,1.06
2017-02-04T07:51:42.942Z,1.07
2017-02-04T07:52:53.616Z,1.06
2017-02-04T07:54:04.312Z,1.09
2017-02-04T07:55:14.987Z,1.12
2017-02-04T07:56:25.703Z,1.09
2017-02-04T07:57:36.374Z,1.09
2017-02-04T07:58:47.050Z,1.09
2017-02-04T07:59:57.728Z,1.1
2017-02-04T08:01:08.402Z,1.12
2017-02-04T08:02:19.076Z,1.1
2017-02-04T08:03:29.750Z,1.18
2017-02-04T08:04:40.426Z,1.1
2017-02-04T08:05:51.130Z,1.16
2017-02-04T08:07:01.806Z,1.12
2017-02-04T08:08:12.482Z,1.2
2017-02-04T08:09:23.149Z,1.16
2017-02-04T08:10:33.824Z,1.18
2017-02-04T08:11:44.098Z,1.18
2017-02-04T08:12:54.777Z,1.28
2017-02-04T08:14:05.058Z,1.22
2017-02-04T08:15:15.332Z,1.24
2017-02-04T08:16:25.608Z,1.24
2017-02-04T08:17:36.283Z,1.27
2017-02-04T08:18:46.956Z,1.21
2017-02-04T08:19:57.233Z,1.24
2017-02-04T08:21:07.905Z,1.25
2017-02-04T08:22:18.213Z,1.27
2017-02-04T08:23:28.891Z,1.24
2017-02-04T08:24:39.168Z,1.27
2017-02-04T08:25:49.841Z,1.27
2017-02-04T08:27:00.514Z,1.27
2017-02-04T08:28:10.794Z,1.24
2017-02-04T08:29:21.461Z,1.21
2017-02-04T08:30:32.139Z,1.22
2017-02-04T08:31:42.845Z,1.22
2017-02-04T08:32:53.516Z,1.24
2017-02-04T08:34:04.192Z,1.27
2017-02-04T08:35:14.868Z,1.18
2017-02-04T08:36:25.536Z,1.32
2017-02-04T08:37:36.212Z,1.3
2017-02-04T08:38:46.888Z,1.36
2017-02-04T08:39:57.560Z,1.31
2017-02-04T08:41:08.231Z,1.28
2017-02-04T08:42:18.904Z,1.27
2017-02-04T08:43:29.578Z,1.3
2017-02-04T08:44:40.246Z,1.21
2017-02-04T08:45:50.920Z,1.21
2017-02-04T08:47:01.596Z,1.25
2017-02-04T08:48:12.301Z,1.24
2017-02-04T08:49:22.971Z,1.25
2017-02-04T08:50:33.644Z,1.22
2017-02-04T08:51:44.317Z,1.3
2017-02-04T08:52:54.988Z,1.32
2017-02-04T08:54:05.665Z,1.36
2017-02-04T08:55:16.335Z,1.36
2017-02-04T08:56:27.008Z,1.46
2017-02-04T08:57:37.687Z,1.4
2017-02-04T08:58:48.357Z,1.49
2017-02-04T08:59:59.034Z,1.49
2017-02-04T09:01:09.709Z,1.48
2017-02-04T09:02:20.388Z,1.43
2017-02-04T09:03:31.063Z,1.5
2017-02-04T09:04:41.736Z,1.5
2017-02-04T09:05:52.441Z,1.43
2017-02-04T09:07:03.112Z,1.45
2017-02-04T09:08:13.785Z,1.46
2017-02-04T09:09:24.456Z,1.31
2017-02-04T09:10:35.130Z,1.32
2017-02-04T09:11:46.050Z,1.32
2017-02-04T09:12:56.719Z,1.39
2017-02-04T09:14:07.390Z,1.38
2017-02-04T09:15:17.667Z,1.46
2017-02-04T09:16:28.335Z,1.38
2017-02-04T09:17:39.004Z,1.4
2017-02-04T09:18:49.678Z,1.31
2017-02-04T09:20:00.351Z,1.43
2017-02-04T09:21:10.636Z,1.48
2017-02-04T09:22:21.309Z,1.49
2017-02-04T09:23:31.979Z,1.56
2017-02-04T09:24:42.653Z,1.53
2017-02-04T09:25:53.329Z,1.53
2017-02-04T09:27:03.605Z,1.57
2017-02-04T09:28:14.280Z,1.57
2017-02-04T09:29:24.952Z,1.46
2017-02-04T09:30:35.621Z,1.58
2017-02-04T09:31:46.306Z,1.66
2017-02-04T09:32:56.983Z,1.6
2017-02-04T09:34:07.265Z,1.63
2017-02-04T09:35:17.932Z,1.71
2017-02-04T09:36:28.615Z,1.7
2017-02-04T09:37:39.288Z,1.76
2017-02-04T09:38:49.958Z,1.78
2017-02-04T09:40:00.232Z,1.74
2017-02-04T09:41:10.902Z,1.74
2017-02-04T09:42:21.171Z,1.81
2017-02-04T09:43:31.843Z,1.84
2017-02-04T09:44:42.518Z,1.92
2017-02-04T09:45:53.194Z,1.84
2017-02-04T09:47:03.870Z,1.85
2017-02-04T09:48:14.143Z,1.79
2017-02-04T09:49:24.820Z,1.85
2017-02-04T09:50:35.493Z,1.79
2017-02-04T09:51:45.768Z,1.84
2017-02-04T09:52:56.445Z,1.89
2017-02-04T09:54:07.119Z,1.85
2017-02-04T09:55:17.819Z,1.82
2017-02-04T09:56:28.494Z,1.89
2017-02-04T09:57:38.767Z,1.89
2017-02-04T09:58:49.049Z,1.71
2017-02-04T09:59:59.722Z,1.81
2017-02-04T10:01:09.600Z,1.75
2017-02-04T10:02:20.273Z,1.75
2017-02-04T10:03:30.955Z,1.78
2017-02-04T10:04:41.624Z,1.74
2017-02-04T10:05:51.903Z,1.74
2017-02-04T10:07:02.580Z,1.78
2017-02-04T10:08:12.063Z,1.75
2017-02-04T10:09:22.742Z,1.81
2017-02-04T10:10:33.026Z,1.81
2017-02-04T10:11:43.698Z,1.88
2017-02-04T10:12:53.583Z,1.81
2017-02-04T10:14:04.260Z,1.78
2017-02-04T10:15:14.933Z,1.78
2017-02-04T10:16:25.605Z,1.84
2017-02-04T10:17:36.281Z,1.81
2017-02-04T10:18:46.563Z,1.89
2017-02-04T10:19:56.841Z,1.88
2017-02-04T10:21:07.510Z,1.86
2017-02-04T10:22:17.790Z,1.92
2017-02-04T10:23:28.464Z,1.84
2017-02-04T10:24:39.133Z,1.86
2017-02-04T10:25:49.806Z,1.89
2017-02-04T10:27:00.478Z,1.86
2017-02-04T10:28:10.761Z,1.95
2017-02-04T10:29:21.440Z,1.88
2017-02-04T10:30:32.145Z,1.88
2017-02-04T10:31:42.817Z,1.88
2017-02-04T10:32:53.488Z,1.85
2017-02-04T10:34:04.163Z,1.89
2017-02-04T10:35:14.844Z,1.85
2017-02-04T10:36:25.524Z,1.88
2017-02-04T10:37:35.800Z,1.89
2017-02-04T10:38:46.473Z,1.88
2017-02-04T10:39:57.150Z,1.86
2017-02-04T10:41:07.438Z,1.81
2017-02-04T10:42:18.113Z,1.76
2017-02-04T10:43:28.783Z,1.79
2017-02-04T10:44:39.456Z,1.84
2017-02-04T10:45:50.131Z,1.84
2017-02-04T10:47:00.803Z,1.82
2017-02-04T10:48:11.481Z,1.75
2017-02-04T10:49:22.153Z,1.71
2017-02-04T10:50:32.827Z,1.74
2017-02-04T10:51:43.504Z,1.63
2017-02-04T10:52:54.176Z,1.64
2017-02-04T10:54:04.854Z,1.57
2017-02-04T10:55:15.523Z,1.46
2017-02-04T10:56:26.203Z,1.52
2017-02-04T10:57:36.922Z,1.45
2017-02-04T10:58:47.597Z,1.4
2017-02-04T10:59:58.272Z,1.28
2017-02-04T11:01:08.947Z,1.25
2017-02-04T11:02:19.224Z,1.28
2017-02-04T11:03:29.900Z,1.25
2017-02-04T11:04:40.574Z,1.24
2017-02-04T11:05:51.249Z,1.24
2017-02-04T11:07:01.956Z,1.25
2017-02-04T11:08:12.652Z,1.21
2017-02-04T11:09:23.326Z,1.21
2017-02-04T11:10:34.010Z,1.16
2017-02-04T11:11:44.689Z,1.21
2017-02-04T11:12:54.966Z,1.13
2017-02-04T11:14:05.246Z,0.99
2017-02-04T11:15:15.946Z,1.1
2017-02-04T11:16:26.617Z,1.07
2017-02-04T11:17:37.292Z,1.13
2017-02-04T11:18:47.567Z,1.18
2017-02-04T11:19:57.450Z,1.18
2017-02-04T11:21:08.123Z,1.13
2017-02-04T11:22:18.801Z,1.1
2017-02-04T11:23:29.075Z,1.22
2017-02-04T11:24:39.750Z,1.22
2017-02-04T11:25:49.637Z,1.22
2017-02-04T11:27:00.317Z,1.31
2017-02-04T11:28:10.993Z,1.25
2017-02-04T11:29:21.666Z,1.39
2017-02-04T11:30:32.345Z,1.36
2017-02-04T11:31:43.017Z,1.43
2017-02-04T11:32:53.695Z,1.53
2017-02-04T11:34:04.368Z,1.52
2017-02-04T11:35:15.040Z,1.58
2017-02-04T11:36:25.710Z,1.66
2017-02-04T11:37:35.989Z,1.61
2017-02-04T11:38:46.270Z,1.76
2017-02-04T11:39:56.942Z,1.75
2017-02-04T11:41:07.618Z,1.79
2017-02-04T11:42:18.288Z,1.81
2017-02-04T11:43:28.955Z,1.86
2017-02-04T11:44:39.629Z,1.88
2017-02-04T11:45:50.317Z,2.01
2017-02-04T11:47:00.986Z,2.03
2017-02-04T11:48:11.654Z,2.03
2017-02-04T11:49:22.331Z,2.03
2017-02-04T11:50:33.016Z,2.03
2017-02-04T11:51:43.698Z,1.98
2017-02-04T11:52:54.369Z,2.12
2017-02-04T11:54:05.040Z,2.1
2017-02-04T11:55:15.318Z,2.1
2017-02-04T11:56:25.998Z,2.05
2017-02-04T11:57:36.676Z,2.12
2017-02-04T11:58:47.343Z,2.08
2017-02-04T11:59:57.618Z,2.03
2017-02-04T12:01:08.295Z,2.03
2017-02-04T12:02:18.973Z,2.07
2017-02-04T12:03:29.646Z,2.12
2017-02-04T12:04:40.323Z,2.08
2017-02-04T12:05:50.996Z,2.08
2017-02-04T12:07:01.669Z,2.15
2017-02-04T12:08:12.346Z,2.14
2017-02-04T12:09:23.025Z,2.15
2017-02-04T12:10:33.694Z,2.1
2017-02-04T12:11:44.376Z,2.15
2017-02-04T12:12:55.043Z,2.23
2017-02-04T12:14:05.722Z,2.18
2017-02-04T12:15:16.001Z,2.22
2017-02-04T12:16:26.279Z,2.19
2017-02-04T12:17:36.950Z,2.21
2017-02-04T12:18:47.630Z,2.21
2017-02-04T12:19:58.299Z,2.19
2017-02-04T12:21:08.979Z,2.28
2017-02-04T12:22:19.651Z,2.23
2017-02-04T12:23:30.327Z,2.28
2017-02-04T12:24:41.000Z,2.25
2017-02-04T12:25:51.772Z,2.25
2017-02-04T12:27:02.444Z,2.32
2017-02-04T12:28:12.720Z,2.37
2017-02-04T12:29:23.387Z,2.39
2017-02-04T12:30:34.064Z,2.4
2017-02-04T12:31:44.739Z,2.37
2017-02-04T12:32:55.416Z,2.39
2017-02-04T12:34:06.089Z,2.4
2017-02-04T12:35:16.766Z,2.43
2017-02-04T12:36:27.439Z,2.46
2017-02-04T12:37:38.118Z,2.4
2017-02-04T12:38:48.789Z,2.44
2017-02-04T12:39:59.460Z,2.46
2017-02-04T12:41:10.132Z,2.41
2017-02-04T12:42:20.803Z,2.43
2017-02-04T12:43:31.079Z,2.39
2017-02-04T12:44:41.752Z,2.4
2017-02-04T12:45:52.424Z,2.4
2017-02-04T12:47:03.096Z,2.39
2017-02-04T12:48:13.779Z,2.43
2017-02-04T12:49:24.446Z,2.43
2017-02-04T12:50:35.124Z,2.32
2017-02-04T12:51:45.800Z,2.37
2017-02-04T12:52:56.477Z,2.4
2017-02-04T12:54:07.155Z,2.25
2017-02-04T12:55:17.831Z,2.37
2017-02-04T12:56:28.504Z,2.34
2017-02-04T12:57:39.175Z,2.33
2017-02-04T12:58:49.861Z,2.28
2017-02-04T13:00:00.538Z,2.3
2017-02-04T13:01:11.215Z,2.4
2017-02-04T13:02:21.886Z,2.23
2017-02-04T13:03:32.163Z,2.25
2017-02-04T13:04:42.442Z,2.41
2017-02-04T13:05:53.118Z,2.33
2017-02-04T13:07:03.794Z,2.4
2017-02-04T13:08:14.077Z,2.39
2017-02-04T13:09:24.759Z,2.36
2017-02-04T13:10:35.436Z,2.39
2017-02-04T13:11:46.170Z,2.39
2017-02-04T13:12:56.445Z,2.41
2017-02-04T13:14:07.116Z,2.39
2017-02-04T13:15:17.787Z,2.34
2017-02-04T13:16:28.066Z,2.37
2017-02-04T13:17:38.742Z,2.4
2017-02-04T13:18:49.417Z,2.41
2017-02-04T13:19:59.694Z,2.4
2017-02-04T13:21:10.369Z,2.23
2017-02-04T13:22:21.046Z,2.23
2017-02-04T13:23:31.717Z,2.28
2017-02-04T13:24:42.391Z,2.33
2017-02-04T13:25:53.065Z,2.28
2017-02-04T13:27:03.740Z,2.25
2017-02-04T13:28:14.016Z,2.3
2017-02-04T13:29:24.691Z,2.33
2017-02-04T13:30:35.376Z,2.25
2017-02-04T13:31:46.053Z,2.26
2017-02-04T13:32:56.727Z,2.19
2017-02-04T13:34:07.405Z,2.25
2017-02-04T13:35:18.077Z,2.22
2017-02-04T13:36:28.368Z,2.19
2017-02-04T13:37:38.645Z,2.23
2017-02-04T13:38:49.321Z,2.15
2017-02-04T13:39:59.598Z,2.16
2017-02-04T13:41:10.271Z,2.19
2017-02-04T13:42:20.948Z,2.12
2017-02-04T13:43:31.628Z,2.21
2017-02-04T13:44:42.299Z,2.22
2017-02-04T13:45:52.992Z,2.16
2017-02-04T13:47:03.668Z,2.19
2017-02-04T13:48:14.338Z,2.22
2017-02-04T13:49:25.010Z,2.21
2017-02-04T13:50:35.681Z,2.14
2017-02-04T13:51:46.358Z,2.12
2017-02-04T13:52:57.039Z,2.14
2017-02-04T13:54:07.715Z,2.18
2017-02-04T13:55:18.393Z,2.1
2017-02-04T13:56:29.068Z,2.01
2017-02-04T13:57:39.743Z,2.01
2017-02-04T13:58:50.418Z,2.04
2017-02-04T14:00:01.097Z,2.14
2017-02-04T14:01:11.774Z,2.07
2017-02-04T14:02:22.051Z,2.03
2017-02-04T14:03:32.723Z,2.03
2017-02-04T14:04:43.392Z,2.05
2017-02-04T14:05:54.073Z,2.05
2017-02-04T14:07:04.347Z,2.03
2017-02-04T14:08:15.022Z,2.04
2017-02-04T14:09:25.297Z,1.97
2017-02-04T14:10:35.977Z,2.01
2017-02-04T14:11:46.703Z,1.98
2017-02-04T14:12:57.373Z,2.01
2017-02-04T14:14:08.051Z,2.04
2017-02-04T14:15:18.721Z,1.97
2017-02-04T14:16:28.994Z,2
2017-02-04T14:17:39.671Z,2.01
2017-02-04T14:18:50.342Z,2.01
2017-02-04T14:20:01.022Z,1.93
2017-02-04T14:21:11.778Z,2.07
2017-02-04T14:22:22.448Z,2.01
2017-02-04T14:23:32.739Z,2
2017-02-04T14:24:43.413Z,2.07
2017-02-04T14:25:54.090Z,2.07
2017-02-04T14:27:04.761Z,2.08
2017-02-04T14:28:15.440Z,2.07
2017-02-04T14:29:26.121Z,1.98
2017-02-04T14:30:36.799Z,2
2017-02-04T14:31:47.477Z,2
2017-02-04T14:32:58.142Z,1.98
2017-02-04T14:34:08.416Z,2
2017-02-04T14:35:19.088Z,2
2017-02-04T14:36:29.362Z,2.01
2017-02-04T14:37:40.038Z,1.95
2017-02-04T14:38:50.713Z,1.88
2017-02-04T14:40:00.993Z,1.92
2017-02-04T14:41:11.262Z,1.89
2017-02-04T14:42:21.541Z,1.86
2017-02-04T14:43:32.211Z,1.78
2017-02-04T14:44:42.490Z,1.79
2017-02-04T14:45:53.173Z,1.76
2017-02-04T14:47:03.851Z,1.82
2017-02-04T14:48:14.530Z,1.81
2017-02-04T14:49:25.206Z,1.81
2017-02-04T14:50:35.878Z,1.75
2017-02-04T14:51:46.598Z,1.74
2017-02-04T14:52:57.268Z,1.78
2017-02-04T14:54:07.552Z,1.75
2017-02-04T14:55:17.834Z,1.81
2017-02-04T14:56:28.507Z,1.75
2017-02-04T14:57:38.788Z,1.82
2017-02-04T14:58:49.065Z,1.79
2017-02-04T14:59:59.771Z,1.76
2017-02-04T15:01:10.055Z,1.75
2017-02-04T15:02:20.723Z,1.82
2017-02-04T15:03:31.397Z,1.81
2017-02-04T15:04:41.672Z,1.75
2017-02-04T15:05:52.346Z,1.81
2017-02-04T15:07:02.221Z,1.79
2017-02-04T15:08:12.500Z,1.81
2017-02-04T15:09:23.176Z,1.85
2017-02-04T15:10:33.453Z,1.82
2017-02-04T15:11:44.131Z,1.82
2017-02-04T15:12:54.807Z,1.84
2017-02-04T15:14:05.499Z,1.85
2017-02-04T15:15:15.773Z,1.78
2017-02-04T15:16:26.445Z,1.82
2017-02-04T15:17:37.119Z,1.84
2017-02-04T15:18:47.789Z,1.74
2017-02-04T15:19:58.463Z,1.7
2017-02-04T15:21:09.143Z,1.71
2017-02-04T15:22:19.424Z,1.75
2017-02-04T15:23:30.107Z,1.76
2017-02-04T15:24:40.779Z,1.64
2017-02-04T15:25:51.450Z,1.76
2017-02-04T15:27:02.127Z,1.61
2017-02-04T15:28:12.801Z,1.64
2017-02-04T15:29:23.476Z,1.63
2017-02-04T15:30:34.144Z,1.64
2017-02-04T15:31:44.822Z,1.67
2017-02-04T15:32:55.490Z,1.7
2017-02-04T15:34:06.520Z,1.63
2017-02-04T15:35:17.190Z,1.64
2017-02-04T15:36:27.859Z,1.68
2017-02-04T15:37:38.529Z,1.6
2017-02-04T15:38:49.203Z,1.67
2017-02-04T15:39:59.876Z,1.6
2017-02-04T15:41:10.549Z,1.6
2017-02-04T15:42:21.222Z,1.57